• Join FlightAware (Why Join?)
  • Login
  • US Flag 
02:57PM EDT


 

Airport Tracker/Info


-or-


 

Live Flight TrackerFlight Track Log ✈ LYM752 ✈ 16-Oct-2013 ✈ KDEN - KGJT

Flight Track Log - Related Links

Times and Time Zones

All times are in EDT time to prevent confusion due to time zone crossing. See the LYM752 flight status page for this flight to view local times or setup timezone preferences in your user account.

Time Position Orientation Groundspeed Altitude Reporting Facility
EDT Latitude Longitude Course Direction KTS MPH feet Rate Location/Type
07:42AM 39.8167 -104.7500 260° West 125 144 7,700  Level Denver TRACON
07:43AM 39.8000 -104.7833 237° Southwest 124 143 8,600 780 Climbing Denver TRACON
07:44AM 39.7931 -104.8461 262° West 123 142 9,600 780 Climbing Denver Center
07:45AM 39.7883 -104.8897 262° West 121 139 10,600 840 Climbing Denver Center
07:46AM 39.7847 -104.9325 264° West 119 137 11,400 660 Climbing Denver Center
07:47AM 39.7958 -105.0491 260° West  Level Estimated
07:47AM 39.7814 -104.9772 264° West 124 143 12,000  Level Denver Center
07:48AM 39.7758 -105.0239 261° West 131 151 12,800 660 Climbing Denver Center
07:49AM 39.7706 -105.0719 262° West 134 154 13,400 540 Climbing Denver Center
07:50AM 39.7636 -105.1222 260° West 140 161 14,000 600 Climbing Denver Center
07:51AM 39.7572 -105.1733 261° West 143 165 14,600 600 Climbing Denver Center
07:52AM 39.7506 -105.2222 260° West 140 161 15,300 600 Climbing Denver Center
07:53AM 39.7456 -105.2750 263° West 136 157 15,900 600 Climbing Denver Center
07:54AM 39.7400 -105.3219 261° West 130 150 16,600 600 Climbing Denver Center
07:55AM 39.7339 -105.3694 261° West 132 152 17,200 480 Climbing Denver Center
07:56AM 39.7283 -105.4169 261° West 134 154 17,600 240 Climbing Denver Center
07:57AM 39.7236 -105.4647 263° West 133 153 17,800 180 Climbing Denver Center
07:58AM 39.7172 -105.5167 261° West 146 168 18,000 60 Climbing Denver Center
07:59AM 39.7089 -105.5728 259° West 158 182 18,000  Level Denver Center
08:00AM 39.7003 -105.6303 259° West 163 188 18,100  Climbing Denver Center
08:01AM 39.6908 -105.6922 259° West 174 200 18,000 -60 Descending Denver Center
08:02AM 39.6769 -105.7556 254° West 182 209 18,000  Level Denver Center
08:03AM 39.6642 -105.8175 255° West 181 208 18,000  Level Denver Center
08:04AM 39.6528 -105.8806 257° West 181 208 18,100  Climbing Denver Center
08:05AM 39.6408 -105.9464 257° West 186 214 18,000  Descending Denver Center
08:06AM 39.6267 -106.0122 254° West 190 219 18,200  Climbing Denver Center
08:07AM 39.6125 -106.0778 254° West 190 219 18,000 -180 Descending Denver Center
08:08AM 39.5978 -106.1472 255° West 192 221 17,900  Descending Denver Center
08:09AM 39.5842 -106.2133 255° West 191 220 18,000  Climbing Denver Center
08:10AM 39.5706 -106.2786 255° West 188 216 17,900  Descending Denver Center
08:11AM 39.5564 -106.3439 254° West 188 216 18,000  Climbing Denver Center
08:12AM 39.5422 -106.4106 255° West 191 220 18,000  Level Denver Center
08:13AM 39.5289 -106.4761 255° West 188 216 18,000  Level Denver Center
08:14AM 39.5153 -106.5414 255° West 185 213 18,000  Level Denver Center
08:15AM 39.5006 -106.6144 255° West 186 214 18,000  Level Denver Center
08:16AM 39.4878 -106.6764 255° West 187 215 18,000  Level Denver Center
08:17AM 39.4744 -106.7383 254° West 187 215 18,000 -60 Level Denver Center
08:18AM 39.4614 -106.8006 255° West 187 215 17,900 -60 Descending Denver Center
08:19AM 39.4472 -106.8725 256° West 185 213 17,900  Level Denver Center
08:20AM 39.4364 -106.9339 257° West 184 212 17,900  Level Denver Center
08:21AM 39.4261 -106.9944 258° West 181 208 18,000  Climbing Denver Center
08:22AM 39.4128 -107.0633 256° West 186 214 17,900 -60 Descending Denver Center
08:23AM 39.4003 -107.1269 256° West 185 213 17,900  Level Denver Center
08:24AM 39.3875 -107.1925 256° West 187 215 17,900  Level Denver Center
08:25AM 39.3736 -107.2631 256° West 186 214 18,000  Climbing Denver Center
08:26AM 39.3611 -107.3253 255° West 187 215 18,000  Level Denver Center
08:27AM 39.3486 -107.3875 255° West 187 215 18,000  Level Denver Center
08:28AM 39.3367 -107.4589 258° West 183 211 18,000 -60 Level Denver Center
08:29AM 39.3211 -107.5222 252° West 190 219 17,900 -120 Descending Denver Center
08:30AM 39.3075 -107.5847 254° West 189 217 17,800 -360 Descending Denver Center
08:31AM 39.2908 -107.6653 255° West 202 232 17,200 -720 Descending Denver Center
08:32AM 39.2761 -107.7375 255° West 212 244 16,400 -840 Descending Denver Center
08:33AM 39.2619 -107.8100 256° West 216 249 15,600 -780 Descending Denver Center
08:34AM 39.2503 -107.8883 259° West 212 244 14,900 -360 Descending Denver Center
08:35AM 39.2381 -107.9564 257° West 195 224 14,900 -240 Level Denver Center
08:36AM 39.2242 -108.0250 255° West 184 212 14,500 -540 Descending Denver Center
08:37AM 39.2086 -108.0961 254° West 204 235 13,900 -840 Descending Denver Center
08:38AM 39.1925 -108.1675 254° West 208 239 12,900 -720 Descending Denver Center
08:39AM 39.1786 -108.2347 255° West 191 220 12,500 -780 Descending Denver Center
08:40AM 39.1675 -108.2961 257° West 178 205 11,400 -1,140 Descending Denver Center
08:41AM 39.1528 -108.3581 253° West 168 193 10,200 -1,200 Descending Denver Center
08:42AM 39.1406 -108.4092 253° West 156 180 9,000 -1,380 Descending Denver Center
08:43AM 39.1336 -108.4647 261° West 158 182 7,500 -1,380 Descending Denver Center
08:44AM 39.1469 -108.5158 289° West 156 180 6,200 -1,020 Descending Denver Center
08:45AM 39.1547 -108.5594 283° West 145 167 5,500 -660 Descending Denver Center
08:46AM 39.1292 -108.5342 142° Southeast 132 152 4,900 -360 Descending Denver Center
08:48AM 39.1272 -108.5336 168° South 112 129 4,800 -120 Descending Denver Center
08:49AM 39.1224 -108.5267 270° West  Level Estimated